EW2802 Weather Reports


Display with metric or nautical units.
time (UTC)temp
F
wind
direction
speed
MPH
gust
MPH
rain 1hr
in
rain 24hr
in
rain mn
in
humidity
%
barometer
mb
20180722121503 64 245 6.0 11.0 0.00 0.16 0.00 61 1024.1
20180722121003 63 244 5.0 10.0 0.00 0.16 0.00 61 1024.2
20180722114003 63 252 5.0 10.0 0.00 0.16 0.00 63 1024.4
20180722113503 63 248 4.0 10.0 0.00 0.16 0.00 63 1024.4
20180722112502 62 244 5.0 10.0 0.00 0.16 0.00 64 1023.9
20180722111503 62 244 5.0 8.0 0.00 0.16 0.00 66 1023.9
20180722111003 62 242 5.0 9.0 0.00 0.16 0.00 67 1023.9
20180722104004 63 240 6.0 10.0 0.00 0.16 0.00 63 1024.1
20180722103504 63 239 5.0 9.0 0.00 0.16 0.00 63 1024.0
20180722102502 64 220 3.0 7.0 0.00 0.16 0.00 63 1023.9
20180722102003 64 230 3.0 7.0 0.00 0.16 0.00 62 1024.0
20180722101503 64 235 3.0 7.0 0.00 0.16 0.00 61 1024.1
20180722100503 64 229 5.0 9.0 0.00 0.16 0.00 61 1024.2
20180722100004 64 237 5.0 9.0 0.00 0.16 0.00 62 1024.1
20180722095502 64 230 4.0 9.0 0.00 0.16 0.00 63 1024.1
20180722095003 64 225 4.0 7.0 0.00 0.16 0.00 64 1023.9
20180722093503 64 213 4.0 9.0 0.00 0.16 0.00 63 1023.9
20180722092502 64 205 6.0 9.0 0.00 0.16 0.00 63 1024.0
20180722091503 64 231 5.0 9.0 0.00 0.16 0.00 62 1023.9
20180722090503 63 235 4.0 8.0 0.00 0.16 0.00 65 1024.0
20180722085503 64 228 4.0 10.0 0.00 0.16 0.00 64 1024.2
20180722085003 64 229 3.0 7.0 0.00 0.16 0.00 64 1024.1
20180722084503 64 225 3.0 7.0 0.00 0.16 0.00 64 1024.2
20180722084003 63 221 3.0 6.0 0.00 0.16 0.00 64 1024.2
20180722083503 63 227 4.0 7.0 0.00 0.16 0.00 65 1024.2
20180722083003 64 232 4.0 8.0 0.00 0.16 0.00 64 1024.4
20180722081503 64 236 2.0 6.0 0.00 0.16 0.00 63 1024.2
20180722081003 65 226 3.0 7.0 0.00 0.16 0.00 63 1024.4
20180722080502 65 231 4.0 9.0 0.00 0.16 0.00 62 1024.3
20180722080003 66 240 4.0 9.0 0.00 0.16 0.00 61 1024.3
20180722075503 66 246 3.0 7.0 0.00 0.16 0.00 61 1024.3
20180722074504 65 237 3.0 7.0 0.00 0.16 0.00 63 1024.3
20180722072503 67 248 4.0 10.0 0.00 0.16 0.00 60 1024.7
20180722072003 67 240 5.0 10.0 0.00 0.16 0.00 59 1024.6
20180722071503 67 236 4.0 9.0 0.00 0.16 0.00 61 1024.8
20180722070503 67 224 4.0 8.0 0.00 0.16 0.00 61 1024.6
20180722065003 67 217 3.0 6.0 0.00 0.16 0.00 62 1025.1
20180722064504 67 231 3.0 6.0 0.00 0.16 0.00 62 1025.1
20180722064002 67 232 3.0 7.0 0.00 0.16 0.00 62 1025.0
20180722063503 67 227 4.0 8.0 0.00 0.16 0.00 62 1024.9
20180722060006 69 226 4.0 8.0 0.00 0.16 0.00 61 1025.0
20180722054503 70 214 3.0 8.0 0.00 0.16 0.16 59 1024.9
20180722054003 70 215 3.0 8.0 0.00 0.16 0.16 58 1025.0
20180722053004 70 249 4.0 6.0 0.00 0.16 0.16 58 1025.2
20180722052503 70 251 3.0 6.0 0.00 0.16 0.16 58 1025.2
20180722052003 70 245 3.0 7.0 0.00 0.16 0.16 59 1025.1
20180722044003 72 202 3.0 7.0 0.00 0.16 0.16 54 1025.3
20180722043004 72 229 3.0 8.0 0.00 0.16 0.16 53 1025.3
20180722042503 73 248 5.0 8.0 0.00 0.16 0.16 52 1025.3
20180722040503 72 252 3.0 4.0 0.00 0.16 0.16 55 1025.0
20180722035003 73 274 2.0 5.0 0.00 0.16 0.16 54 1024.9
20180722034503 74 15 1.0 3.0 0.00 0.16 0.16 54 1024.9
20180722033503 75 42 1.0 2.0 0.00 0.16 0.16 52 1024.8
20180722032003 76 46 0.0 2.0 0.00 0.16 0.16 50 1024.8
20180722031504 77 49 0.0 2.0 0.00 0.16 0.16 49 1024.8
20180722030503 76 47 1.0 4.0 0.00 0.16 0.16 51 1024.7
20180722025503 77 356 2.0 8.0 0.00 0.16 0.16 47 1024.5
20180722025003 78 348 3.0 8.0 0.00 0.16 0.16 46 1024.2
20180722024504 78 342 3.0 10.0 0.00 0.16 0.16 45 1024.2
20180722024003 78 343 5.0 11.0 0.00 0.16 0.16 45 1024.1
20180722023003 79 340 5.0 11.0 0.00 0.16 0.16 43 1024.0
20180722022503 79 331 5.0 10.0 0.00 0.16 0.16 42 1023.9
20180722022003 79 323 6.0 10.0 0.00 0.16 0.16 42 1023.8
20180722021003 80 308 4.0 9.0 0.01 0.16 0.16 39 1023.6
20180722020503 80 310 5.0 9.0 0.01 0.16 0.16 39 1023.6
20180722014503 80 270 4.0 11.0 0.01 0.16 0.16 37 1023.1
20180722013503 80 267 4.0 9.0 0.01 0.16 0.16 38 1022.7
20180722013004 80 260 4.0 9.0 0.01 0.16 0.16 38 1022.7
20180722012503 80 250 5.0 17.0 0.01 0.16 0.16 41 1022.8
20180722012003 83 246 8.0 17.0 0.01 0.16 0.16 39 1022.7
20180722011004 85 252 11.0 22.0 0.00 0.15 0.15 31 1022.2
20180722010003 85 242 8.0 18.0 0.00 0.15 0.15 31 1021.9
20180722004003 86 222 4.0 11.0 0.00 0.15 0.15 30 1021.7
20180722003004 86 211 4.0 11.0 0.00 0.15 0.15 28 1022.0
20180722002503 87 227 6.0 13.0 0.00 0.15 0.15 28 1022.1
20180722001003 88 229 6.0 17.0 0.00 0.15 0.15 27 1022.2
20180722000503 88 216 6.0 17.0 0.00 0.15 0.15 28 1022.2
20180721235503 90 202 4.0 11.0 0.00 0.15 0.15 26 1021.5
20180721235003 91 191 3.0 11.0 0.00 0.15 0.15 25 1021.8
20180721234003 90 217 4.0 9.0 0.00 0.15 0.15 25 1021.6
20180721233503 90 213 4.0 9.0 0.00 0.15 0.15 25 1021.7
20180721233003 90 206 4.0 12.0 0.00 0.15 0.15 24 1021.8
20180721232503 90 200 4.0 12.0 0.00 0.15 0.15 24 1021.9
20180721232003 90 200 4.0 11.0 0.00 0.15 0.15 25 1021.8
20180721231003 91 190 3.0 11.0 0.00 0.15 0.15 23 1022.3
20180721224003 91 206 7.0 17.0 0.00 0.15 0.15 24 1022.1
20180721223503 91 201 7.0 17.0 0.00 0.15 0.15 24 1022.0
20180721223003 92 197 5.0 17.0 0.00 0.15 0.15 23 1022.1
20180721222503 92 193 4.0 14.0 0.00 0.15 0.15 23 1022.1
20180721221504 92 187 5.0 12.0 0.00 0.15 0.15 24 1022.2
20180721220003 91 185 4.0 10.0 0.00 0.15 0.15 26 1022.4
20180721215503 91 179 4.0 13.0 0.00 0.15 0.15 25 1022.3
20180721215003 90 182 5.0 13.0 0.00 0.15 0.15 27 1022.5
20180721214003 90 175 4.0 7.0 0.00 0.15 0.15 28 1022.5
20180721213503 89 179 4.0 9.0 0.00 0.15 0.15 29 1022.6
20180721213003 88 192 5.0 13.0 0.00 0.15 0.15 31 1022.8
20180721212003 88 187 4.0 15.0 0.00 0.15 0.15 30 1023.0
20180721211003 89 183 3.0 13.0 0.00 0.15 0.15 32 1023.5
20180721210504 89 184 3.0 11.0 0.00 0.15 0.15 32 1023.7
20180721205503 87 175 5.0 13.0 0.00 0.15 0.15 35 1023.9
20180721204503 86 187 3.0 16.0 0.00 0.15 0.15 36 1024.3
20180721203503 84 164 2.0 5.0 0.00 0.15 0.15 42 1024.2
20180721202003 80 140 2.0 4.0 0.01 0.15 0.15 47 1024.2
20180721201503 79 152 2.0 4.0 0.03 0.15 0.15 51 1024.2
20180721200004 75 173 2.0 5.0 0.14 0.15 0.15 63 1024.8
20180721195502 74 146 2.0 5.0 0.15 0.15 0.15 63 1024.5
20180721195003 73 134 2.0 5.0 0.15 0.15 0.15 60 1024.3
20180721194503 71 136 1.0 4.0 0.15 0.15 0.15 63 1024.3
20180721194003 70 150 2.0 4.0 0.15 0.15 0.15 70 1024.4
20180721193503 69 153 2.0 9.0 0.15 0.15 0.15 68 1024.6
20180721192503 66 173 4.0 12.0 0.15 0.15 0.15 75 1024.3
20180721192003 66 190 8.0 16.0 0.14 0.14 0.14 79 1024.4
20180721191503 67 201 12.0 27.0 0.12 0.12 0.12 72 1024.5
20180721191003 68 204 13.0 27.0 0.10 0.10 0.10 65 1024.4
20180721190003 80 199 6.0 25.0 0.01 0.01 0.01 44 1024.6
20180721185503 88 99 3.0 11.0 0.00 0.00 0.00 34 1024.1
20180721185003 89 60 3.0 9.0 0.00 0.00 0.00 25 1023.7
20180721184003 90 327 3.0 9.0 0.00 0.00 0.00 24 1023.6
20180721183503 91 8 2.0 9.0 0.00 0.00 0.00 24 1023.5
20180721183003 91 59 2.0 8.0 0.00 0.00 0.00 24 1023.5
20180721182503 91 85 3.0 8.0 0.00 0.00 0.00 24 1023.7
20180721182003 91 94 5.0 10.0 0.00 0.00 0.00 24 1023.9
20180721181004 92 90 3.0 10.0 0.00 0.00 0.00 22 1023.8
20180721174503 90 81 3.0 7.0 0.00 0.00 0.00 26 1024.2
20180721174003 89 72 2.0 6.0 0.00 0.00 0.00 25 1024.3
20180721173502 89 86 3.0 8.0 0.00 0.00 0.00 25 1024.3
20180721173003 89 91 3.0 10.0 0.00 0.00 0.00 25 1024.3
20180721172503 90 90 2.0 10.0 0.00 0.00 0.00 24 1024.4
20180721170503 89 99 3.0 8.0 0.00 0.00 0.00 24 1024.4
20180721165503 89 69 2.0 6.0 0.00 0.00 0.00 25 1024.5
20180721165003 89 67 2.0 7.0 0.00 0.00 0.00 25 1024.5
20180721164003 88 78 3.0 9.0 0.00 0.00 0.00 26 1024.5
20180721163003 88 73 1.0 4.0 0.00 0.00 0.00 27 1024.5
20180721162503 87 66 1.0 4.0 0.00 0.00 0.00 28 1024.6
20180721162003 86 57 1.0 5.0 0.00 0.00 0.00 30 1024.6
20180721161504 85 13 2.0 5.0 0.00 0.00 0.00 30 1024.6
20180721160503 84 28 1.0 4.0 0.00 0.00 0.00 30 1024.5
20180721160003 84 61 1.0 4.0 0.00 0.00 0.00 30 1024.6
20180721154503 80 257 1.0 2.0 0.00 0.00 0.00 35 1024.7
20180721153504 78 224 2.0 4.0 0.00 0.00 0.00 39 1024.8
20180721153003 76 230 2.0 6.0 0.00 0.00 0.00 41 1024.8
20180721152502 76 239 2.0 6.0 0.00 0.00 0.00 43 1025.0
20180721152003 75 228 2.0 5.0 0.00 0.00 0.00 45 1025.0
20180721151504 74 222 3.0 6.0 0.00 0.00 0.00 45 1025.0
20180721151003 74 215 3.0 6.0 0.00 0.00 0.00 46 1024.9
20180721150503 74 209 3.0 6.0 0.00 0.00 0.00 46 1024.8
20180721145503 73 209 2.0 6.0 0.00 0.00 0.00 47 1024.8
20180721145004 72 218 2.0 5.0 0.00 0.00 0.00 48 1024.8
20180721142003 70 204 4.0 7.0 0.00 0.00 0.00 50 1024.7
20180721141504 69 204 4.0 7.0 0.00 0.00 0.00 51 1024.7
20180721141004 69 204 4.0 7.0 0.00 0.00 0.00 51 1024.7
20180721135503 68 216 4.0 7.0 0.00 0.00 0.00 52 1024.7
20180721134004 67 207 4.0 9.0 0.00 0.00 0.00 52 1024.8
20180721133503 67 210 4.0 9.0 0.00 0.00 0.00 53 1024.8
20180721133003 66 224 3.0 5.0 0.00 0.00 0.00 53 1024.8
20180721132003 66 233 3.0 7.0 0.00 0.00 0.00 53 1024.8
20180721131003 65 212 3.0 7.0 0.00 0.00 0.00 54 1024.9
20180721130003 64 199 3.0 5.0 0.00 0.00 0.00 56 1024.9
20180721125003 64 208 2.0 5.0 0.00 0.00 0.00 55 1024.8
20180721123503 64 211 4.0 10.0 0.00 0.00 0.00 55 1024.8
20180721123003 64 229 4.0 10.0 0.00 0.00 0.00 55 1024.7
20180721122503 63 241 4.0 11.0 0.00 0.00 0.00 56 1024.6
20180721122003 63 227 4.0 11.0 0.00 0.00 0.00 56 1024.6